Xiangtan, China
Current Conditions -  °F | °C
As of 11:00 PM on Wednesday 22 Oct 2014 (Local Time) from ZGHA Reporting Station
Haze Haze  
Wind Chill: 63°   Ceiling: Unl
Heat Index: 63°   Visibility: 3mi
Dew Point: 54°   Wind: 7mph
Humidity: 72%   Direction: 350°N
Pressure: 30.15"   Gusts: NA
Location:  27.85°N, 112.9°E
Report Text: ZGHA 221500Z 35003MPS 5000 BR NSC 17/12 Q1021 NOSIG
Loading
Personal Weather Stations






























Interactive Weather Map
Tropical Storm Tracking
New forecast layout! Learn more

10-Day Weather Forecast

Advertisements
Track Severe Weather on mobile